sensor_id;sensor_type;location;lat;lon;timestamp;temperature;humidity
47434;SHT31;33184;48.774;8.918;2023-03-17T00:02:31;5.51;67.22
47434;SHT31;33184;48.774;8.918;2023-03-17T00:07:52;5.48;67.47
47434;SHT31;33184;48.774;8.918;2023-03-17T00:13:14;5.47;67.58
47434;SHT31;33184;48.774;8.918;2023-03-17T00:18:35;5.46;68.25
47434;SHT31;33184;48.774;8.918;2023-03-17T00:23:57;5.47;68.16
47434;SHT31;33184;48.774;8.918;2023-03-17T00:29:18;5.53;67.77
47434;SHT31;33184;48.774;8.918;2023-03-17T00:34:39;5.59;67.95
47434;SHT31;33184;48.774;8.918;2023-03-17T00:40:02;5.60;68.14
47434;SHT31;33184;48.774;8.918;2023-03-17T00:45:24;5.50;68.67
47434;SHT31;33184;48.774;8.918;2023-03-17T00:50:48;5.43;68.62
47434;SHT31;33184;48.774;8.918;2023-03-17T00:56:16;5.40;68.58
47434;SHT31;33184;48.774;8.918;2023-03-17T01:01:38;5.30;69.37
47434;SHT31;33184;48.774;8.918;2023-03-17T01:06:58;5.27;69.06
47434;SHT31;33184;48.774;8.918;2023-03-17T01:12:19;5.34;68.95
47434;SHT31;33184;48.774;8.918;2023-03-17T01:17:40;5.37;68.62
47434;SHT31;33184;48.774;8.918;2023-03-17T01:23:01;5.37;68.22
47434;SHT31;33184;48.774;8.918;2023-03-17T01:28:21;5.36;68.26
47434;SHT31;33184;48.774;8.918;2023-03-17T01:33:43;5.33;68.21
47434;SHT31;33184;48.774;8.918;2023-03-17T01:39:04;5.29;68.61
47434;SHT31;33184;48.774;8.918;2023-03-17T01:44:26;5.27;68.56
47434;SHT31;33184;48.774;8.918;2023-03-17T01:49:46;5.27;68.20
47434;SHT31;33184;48.774;8.918;2023-03-17T01:55:15;5.29;67.99
47434;SHT31;33184;48.774;8.918;2023-03-17T02:00:37;5.26;67.76
47434;SHT31;33184;48.774;8.918;2023-03-17T02:05:59;5.22;67.75
47434;SHT31;33184;48.774;8.918;2023-03-17T02:11:20;5.15;67.40
47434;SHT31;33184;48.774;8.918;2023-03-17T02:16:43;5.06;67.53
47434;SHT31;33184;48.774;8.918;2023-03-17T02:22:04;5.05;67.64
47434;SHT31;33184;48.774;8.918;2023-03-17T02:27:30;5.02;67.51
47434;SHT31;33184;48.774;8.918;2023-03-17T02:32:53;5.00;67.50
47434;SHT31;33184;48.774;8.918;2023-03-17T02:38:15;4.95;67.89
47434;SHT31;33184;48.774;8.918;2023-03-17T02:43:36;4.84;67.87
47434;SHT31;33184;48.774;8.918;2023-03-17T02:48:57;4.81;67.61
47434;SHT31;33184;48.774;8.918;2023-03-17T02:54:18;4.82;66.67
47434;SHT31;33184;48.774;8.918;2023-03-17T02:59:38;4.92;66.37
47434;SHT31;33184;48.774;8.918;2023-03-17T03:04:59;4.95;66.28
47434;SHT31;33184;48.774;8.918;2023-03-17T03:10:19;4.91;66.40
47434;SHT31;33184;48.774;8.918;2023-03-17T03:15:41;4.81;66.44
47434;SHT31;33184;48.774;8.918;2023-03-17T03:21:03;4.64;67.36
47434;SHT31;33184;48.774;8.918;2023-03-17T03:26:24;4.53;67.38
47434;SHT31;33184;48.774;8.918;2023-03-17T03:31:44;4.41;68.15
47434;SHT31;33184;48.774;8.918;2023-03-17T03:37:07;4.31;67.95
47434;SHT31;33184;48.774;8.918;2023-03-17T03:42:27;4.24;68.43
47434;SHT31;33184;48.774;8.918;2023-03-17T03:47:48;4.21;68.48
47434;SHT31;33184;48.774;8.918;2023-03-17T03:53:09;4.20;68.16
47434;SHT31;33184;48.774;8.918;2023-03-17T03:58:29;4.10;68.32
47434;SHT31;33184;48.774;8.918;2023-03-17T04:03:50;4.04;68.33
47434;SHT31;33184;48.774;8.918;2023-03-17T04:09:11;4.02;68.86
47434;SHT31;33184;48.774;8.918;2023-03-17T04:14:32;4.02;68.61
47434;SHT31;33184;48.774;8.918;2023-03-17T04:19:53;3.99;68.62
47434;SHT31;33184;48.774;8.918;2023-03-17T04:25:14;3.92;69.12
47434;SHT31;33184;48.774;8.918;2023-03-17T04:30:35;3.82;68.83
47434;SHT31;33184;48.774;8.918;2023-03-17T04:35:55;3.73;69.35
47434;SHT31;33184;48.774;8.918;2023-03-17T04:41:16;3.69;68.99
47434;SHT31;33184;48.774;8.918;2023-03-17T04:46:37;3.63;69.37
47434;SHT31;33184;48.774;8.918;2023-03-17T04:51:57;3.62;69.38
47434;SHT31;33184;48.774;8.918;2023-03-17T04:57:18;3.55;69.25
47434;SHT31;33184;48.774;8.918;2023-03-17T05:02:38;3.44;69.33
47434;SHT31;33184;48.774;8.918;2023-03-17T05:07:59;3.38;69.61
47434;SHT31;33184;48.774;8.918;2023-03-17T05:13:20;3.44;69.41
47434;SHT31;33184;48.774;8.918;2023-03-17T05:18:40;3.48;69.82
47434;SHT31;33184;48.774;8.918;2023-03-17T05:24:03;3.38;69.69
47434;SHT31;33184;48.774;8.918;2023-03-17T05:29:24;3.27;70.19
47434;SHT31;33184;48.774;8.918;2023-03-17T05:34:45;3.22;70.13
47434;SHT31;33184;48.774;8.918;2023-03-17T05:40:05;3.17;70.22
47434;SHT31;33184;48.774;8.918;2023-03-17T05:45:27;3.22;70.55
47434;SHT31;33184;48.774;8.918;2023-03-17T05:50:48;3.19;70.58
47434;SHT31;33184;48.774;8.918;2023-03-17T05:56:09;3.18;71.11
47434;SHT31;33184;48.774;8.918;2023-03-17T06:01:29;3.25;71.01
47434;SHT31;33184;48.774;8.918;2023-03-17T06:06:50;3.31;70.99
47434;SHT31;33184;48.774;8.918;2023-03-17T06:12:11;3.41;70.58
47434;SHT31;33184;48.774;8.918;2023-03-17T06:17:31;3.49;70.71
47434;SHT31;33184;48.774;8.918;2023-03-17T06:22:52;3.56;70.37
47434;SHT31;33184;48.774;8.918;2023-03-17T06:28:12;3.58;70.48
47434;SHT31;33184;48.774;8.918;2023-03-17T06:33:33;3.68;70.50
47434;SHT31;33184;48.774;8.918;2023-03-17T06:38:54;3.79;70.72
47434;SHT31;33184;48.774;8.918;2023-03-17T06:44:15;3.94;70.46
47434;SHT31;33184;48.774;8.918;2023-03-17T06:49:35;4.17;70.28
47434;SHT31;33184;48.774;8.918;2023-03-17T06:54:56;4.41;70.17
47434;SHT31;33184;48.774;8.918;2023-03-17T07:00:18;4.64;69.86
47434;SHT31;33184;48.774;8.918;2023-03-17T07:05:38;4.85;69.22
47434;SHT31;33184;48.774;8.918;2023-03-17T07:10:59;5.05;68.80
47434;SHT31;33184;48.774;8.918;2023-03-17T07:16:21;5.23;69.00
47434;SHT31;33184;48.774;8.918;2023-03-17T07:21:41;5.34;67.92
47434;SHT31;33184;48.774;8.918;2023-03-17T07:27:03;5.46;67.81
47434;SHT31;33184;48.774;8.918;2023-03-17T07:32:23;5.60;67.37
47434;SHT31;33184;48.774;8.918;2023-03-17T07:37:45;5.74;67.85
47434;SHT31;33184;48.774;8.918;2023-03-17T07:43:06;5.77;67.56
47434;SHT31;33184;48.774;8.918;2023-03-17T07:48:27;5.88;67.64
47434;SHT31;33184;48.774;8.918;2023-03-17T07:53:49;6.06;67.54
47434;SHT31;33184;48.774;8.918;2023-03-17T07:59:10;6.26;67.39
47434;SHT31;33184;48.774;8.918;2023-03-17T08:04:30;6.53;66.85
47434;SHT31;33184;48.774;8.918;2023-03-17T08:09:51;6.75;65.62
47434;SHT31;33184;48.774;8.918;2023-03-17T08:15:11;6.97;66.06
47434;SHT31;33184;48.774;8.918;2023-03-17T08:20:33;7.27;65.06
47434;SHT31;33184;48.774;8.918;2023-03-17T08:25:59;7.49;64.00
47434;SHT31;33184;48.774;8.918;2023-03-17T08:31:20;7.70;63.19
47434;SHT31;33184;48.774;8.918;2023-03-17T08:36:41;8.03;63.16
47434;SHT31;33184;48.774;8.918;2023-03-17T08:42:03;8.37;62.77
47434;SHT31;33184;48.774;8.918;2023-03-17T08:47:24;8.76;61.31
47434;SHT31;33184;48.774;8.918;2023-03-17T08:52:44;9.12;60.19
47434;SHT31;33184;48.774;8.918;2023-03-17T08:58:05;9.37;58.81
47434;SHT31;33184;48.774;8.918;2023-03-17T09:03:27;9.61;59.09
47434;SHT31;33184;48.774;8.918;2023-03-17T09:08:48;9.93;56.30
47434;SHT31;33184;48.774;8.918;2023-03-17T09:14:15;10.49;54.42
47434;SHT31;33184;48.774;8.918;2023-03-17T09:19:35;10.99;52.69
47434;SHT31;33184;48.774;8.918;2023-03-17T09:24:56;11.32;51.72
47434;SHT31;33184;48.774;8.918;2023-03-17T09:30:17;11.64;50.29
47434;SHT31;33184;48.774;8.918;2023-03-17T09:35:38;11.98;51.44
47434;SHT31;33184;48.774;8.918;2023-03-17T09:41:15;12.19;50.84
47434;SHT31;33184;48.774;8.918;2023-03-17T09:52:28;12.75;48.40
47434;SHT31;33184;48.774;8.918;2023-03-17T09:57:50;12.87;50.83
47434;SHT31;33184;48.774;8.918;2023-03-17T10:03:11;13.18;51.09
47434;SHT31;33184;48.774;8.918;2023-03-17T10:08:34;13.36;51.29
47434;SHT31;33184;48.774;8.918;2023-03-17T10:14:03;13.53;51.01
47434;SHT31;33184;48.774;8.918;2023-03-17T10:19:34;13.63;51.42
47434;SHT31;33184;48.774;8.918;2023-03-17T10:25:19;13.90;49.83
47434;SHT31;33184;48.774;8.918;2023-03-17T10:30:41;14.11;49.35
47434;SHT31;33184;48.774;8.918;2023-03-17T10:36:07;14.57;49.47
47434;SHT31;33184;48.774;8.918;2023-03-17T10:41:30;15.07;46.89
47434;SHT31;33184;48.774;8.918;2023-03-17T10:46:54;15.43;47.25
47434;SHT31;33184;48.774;8.918;2023-03-17T10:52:22;15.91;45.95
47434;SHT31;33184;48.774;8.918;2023-03-17T10:58:14;16.01;45.66
47434;SHT31;33184;48.774;8.918;2023-03-17T11:03:38;16.14;45.04
47434;SHT31;33184;48.774;8.918;2023-03-17T11:09:07;16.02;45.71
47434;SHT31;33184;48.774;8.918;2023-03-17T11:14:28;16.19;44.91
47434;SHT31;33184;48.774;8.918;2023-03-17T11:19:54;16.43;45.24
47434;SHT31;33184;48.774;8.918;2023-03-17T11:25:18;17.27;42.22
47434;SHT31;33184;48.774;8.918;2023-03-17T11:30:46;17.45;42.53
47434;SHT31;33184;48.774;8.918;2023-03-17T11:41:50;18.50;37.28
47434;SHT31;33184;48.774;8.918;2023-03-17T11:53:19;19.04;37.16
47434;SHT31;33184;48.774;8.918;2023-03-17T11:58:46;18.91;36.88
47434;SHT31;33184;48.774;8.918;2023-03-17T12:04:34;18.73;36.31
47434;SHT31;33184;48.774;8.918;2023-03-17T12:10:02;18.54;36.43
47434;SHT31;33184;48.774;8.918;2023-03-17T12:15:30;18.67;36.46
47434;SHT31;33184;48.774;8.918;2023-03-17T12:21:08;19.28;36.71
47434;SHT31;33184;48.774;8.918;2023-03-17T12:32:07;19.26;36.28
47434;SHT31;33184;48.774;8.918;2023-03-17T12:37:30;19.21;35.45
47434;SHT31;33184;48.774;8.918;2023-03-17T12:54:35;19.02;34.77
47434;SHT31;33184;48.774;8.918;2023-03-17T13:00:06;18.63;40.41
47434;SHT31;33184;48.774;8.918;2023-03-17T13:05:34;18.89;35.98
47434;SHT31;33184;48.774;8.918;2023-03-17T13:16:39;19.25;35.40
47434;SHT31;33184;48.774;8.918;2023-03-17T13:32:56;19.29;34.86
47434;SHT31;33184;48.774;8.918;2023-03-17T13:49:46;19.69;30.25
47434;SHT31;33184;48.774;8.918;2023-03-17T14:00:39;19.46;31.56
47434;SHT31;33184;48.774;8.918;2023-03-17T14:06:03;19.28;29.99
47434;SHT31;33184;48.774;8.918;2023-03-17T14:17:01;20.07;31.01
47434;SHT31;33184;48.774;8.918;2023-03-17T14:22:24;21.20;28.17
47434;SHT31;33184;48.774;8.918;2023-03-17T14:27:49;21.00;26.95
47434;SHT31;33184;48.774;8.918;2023-03-17T14:38:38;19.90;29.07
47434;SHT31;33184;48.774;8.918;2023-03-17T14:43:59;19.70;29.31
47434;SHT31;33184;48.774;8.918;2023-03-17T14:49:22;19.91;29.95
47434;SHT31;33184;48.774;8.918;2023-03-17T14:54:43;19.71;30.14
47434;SHT31;33184;48.774;8.918;2023-03-17T15:00:30;19.60;30.45
47434;SHT31;33184;48.774;8.918;2023-03-17T15:06:22;19.48;30.83
47434;SHT31;33184;48.774;8.918;2023-03-17T15:11:44;19.39;31.03
47434;SHT31;33184;48.774;8.918;2023-03-17T15:17:14;19.32;33.05
47434;SHT31;33184;48.774;8.918;2023-03-17T15:22:43;19.35;33.94
47434;SHT31;33184;48.774;8.918;2023-03-17T15:28:17;19.24;34.99
47434;SHT31;33184;48.774;8.918;2023-03-17T15:33:39;19.01;34.86
47434;SHT31;33184;48.774;8.918;2023-03-17T15:39:01;18.81;36.30
47434;SHT31;33184;48.774;8.918;2023-03-17T15:44:22;18.64;35.27
47434;SHT31;33184;48.774;8.918;2023-03-17T15:49:44;18.49;36.33
47434;SHT31;33184;48.774;8.918;2023-03-17T15:55:08;18.37;36.70
47434;SHT31;33184;48.774;8.918;2023-03-17T16:00:33;18.32;36.93
47434;SHT31;33184;48.774;8.918;2023-03-17T16:05:54;18.19;37.66
47434;SHT31;33184;48.774;8.918;2023-03-17T16:11:18;18.05;36.52
47434;SHT31;33184;48.774;8.918;2023-03-17T16:16:40;18.02;36.77
47434;SHT31;33184;48.774;8.918;2023-03-17T16:22:02;17.74;40.64
47434;SHT31;33184;48.774;8.918;2023-03-17T16:27:23;17.48;42.38
47434;SHT31;33184;48.774;8.918;2023-03-17T16:32:44;17.03;45.50
47434;SHT31;33184;48.774;8.918;2023-03-17T16:38:05;16.77;46.18
47434;SHT31;33184;48.774;8.918;2023-03-17T16:43:32;16.63;46.42
47434;SHT31;33184;48.774;8.918;2023-03-17T16:48:52;16.52;46.27
47434;SHT31;33184;48.774;8.918;2023-03-17T16:54:14;16.42;47.58
47434;SHT31;33184;48.774;8.918;2023-03-17T16:59:34;16.24;48.33
47434;SHT31;33184;48.774;8.918;2023-03-17T17:04:55;16.14;48.82
47434;SHT31;33184;48.774;8.918;2023-03-17T17:10:17;15.95;50.55
47434;SHT31;33184;48.774;8.918;2023-03-17T17:15:39;15.74;52.05
47434;SHT31;33184;48.774;8.918;2023-03-17T17:21:00;15.58;52.50
47434;SHT31;33184;48.774;8.918;2023-03-17T17:26:21;15.40;53.90
47434;SHT31;33184;48.774;8.918;2023-03-17T17:31:42;15.24;54.46
47434;SHT31;33184;48.774;8.918;2023-03-17T17:37:03;15.09;55.31
47434;SHT31;33184;48.774;8.918;2023-03-17T17:42:23;14.69;56.25
47434;SHT31;33184;48.774;8.918;2023-03-17T17:47:45;14.44;56.53
47434;SHT31;33184;48.774;8.918;2023-03-17T17:53:05;14.18;57.24
47434;SHT31;33184;48.774;8.918;2023-03-17T17:58:30;14.13;57.39
47434;SHT31;33184;48.774;8.918;2023-03-17T18:03:51;13.96;58.56
47434;SHT31;33184;48.774;8.918;2023-03-17T18:09:12;13.76;58.95
47434;SHT31;33184;48.774;8.918;2023-03-17T18:14:33;13.69;59.58
47434;SHT31;33184;48.774;8.918;2023-03-17T18:19:55;13.73;59.44
47434;SHT31;33184;48.774;8.918;2023-03-17T18:25:16;13.77;59.54
47434;SHT31;33184;48.774;8.918;2023-03-17T18:30:39;13.53;60.88
47434;SHT31;33184;48.774;8.918;2023-03-17T18:36:01;13.35;60.19
47434;SHT31;33184;48.774;8.918;2023-03-17T18:41:26;13.39;59.71
47434;SHT31;33184;48.774;8.918;2023-03-17T18:46:46;13.32;60.49
47434;SHT31;33184;48.774;8.918;2023-03-17T18:52:07;13.34;60.08
47434;SHT31;33184;48.774;8.918;2023-03-17T18:57:28;13.26;61.16
47434;SHT31;33184;48.774;8.918;2023-03-17T19:02:49;13.28;60.26
47434;SHT31;33184;48.774;8.918;2023-03-17T19:08:09;13.14;61.21
47434;SHT31;33184;48.774;8.918;2023-03-17T19:13:31;12.87;62.77
47434;SHT31;33184;48.774;8.918;2023-03-17T19:18:51;12.59;61.24
47434;SHT31;33184;48.774;8.918;2023-03-17T19:24:12;12.64;61.07
47434;SHT31;33184;48.774;8.918;2023-03-17T19:29:34;12.57;61.42
47434;SHT31;33184;48.774;8.918;2023-03-17T19:34:54;12.23;64.54
47434;SHT31;33184;48.774;8.918;2023-03-17T19:40:15;12.00;65.42
47434;SHT31;33184;48.774;8.918;2023-03-17T19:45:36;11.98;65.50
47434;SHT31;33184;48.774;8.918;2023-03-17T19:50:56;11.74;65.98
47434;SHT31;33184;48.774;8.918;2023-03-17T19:56:18;11.71;65.51
47434;SHT31;33184;48.774;8.918;2023-03-17T20:01:38;11.78;64.84
47434;SHT31;33184;48.774;8.918;2023-03-17T20:06:59;11.82;65.38
47434;SHT31;33184;48.774;8.918;2023-03-17T20:12:20;11.57;66.45
47434;SHT31;33184;48.774;8.918;2023-03-17T20:17:41;11.35;67.34
47434;SHT31;33184;48.774;8.918;2023-03-17T20:23:03;11.32;67.07
47434;SHT31;33184;48.774;8.918;2023-03-17T20:28:24;11.32;66.31
47434;SHT31;33184;48.774;8.918;2023-03-17T20:33:44;11.48;65.72
47434;SHT31;33184;48.774;8.918;2023-03-17T20:39:05;11.54;65.22
47434;SHT31;33184;48.774;8.918;2023-03-17T20:44:26;11.37;64.31
47434;SHT31;33184;48.774;8.918;2023-03-17T20:49:46;11.48;64.14
47434;SHT31;33184;48.774;8.918;2023-03-17T20:55:09;11.47;63.23
47434;SHT31;33184;48.774;8.918;2023-03-17T21:00:33;11.44;63.60
47434;SHT31;33184;48.774;8.918;2023-03-17T21:05:53;11.45;63.55
47434;SHT31;33184;48.774;8.918;2023-03-17T21:11:16;11.34;63.55
47434;SHT31;33184;48.774;8.918;2023-03-17T21:16:37;11.21;63.45
47434;SHT31;33184;48.774;8.918;2023-03-17T21:21:58;11.24;62.73
47434;SHT31;33184;48.774;8.918;2023-03-17T21:27:19;11.30;63.16
47434;SHT31;33184;48.774;8.918;2023-03-17T21:32:40;11.30;63.42
47434;SHT31;33184;48.774;8.918;2023-03-17T21:38:01;11.24;64.69
47434;SHT31;33184;48.774;8.918;2023-03-17T21:43:21;11.13;65.56
47434;SHT31;33184;48.774;8.918;2023-03-17T21:48:42;11.01;66.30
47434;SHT31;33184;48.774;8.918;2023-03-17T21:54:03;10.90;66.38
47434;SHT31;33184;48.774;8.918;2023-03-17T21:59:24;10.94;65.39
47434;SHT31;33184;48.774;8.918;2023-03-17T22:04:45;11.03;65.66
47434;SHT31;33184;48.774;8.918;2023-03-17T22:10:07;10.93;66.33
47434;SHT31;33184;48.774;8.918;2023-03-17T22:15:27;10.92;66.72
47434;SHT31;33184;48.774;8.918;2023-03-17T22:20:52;10.87;67.02
47434;SHT31;33184;48.774;8.918;2023-03-17T22:26:15;10.77;67.40
47434;SHT31;33184;48.774;8.918;2023-03-17T22:31:36;10.77;66.93
47434;SHT31;33184;48.774;8.918;2023-03-17T22:36:57;10.65;67.16
47434;SHT31;33184;48.774;8.918;2023-03-17T22:42:17;10.59;66.28
47434;SHT31;33184;48.774;8.918;2023-03-17T22:47:38;10.62;64.83
47434;SHT31;33184;48.774;8.918;2023-03-17T22:52:58;10.72;63.21
47434;SHT31;33184;48.774;8.918;2023-03-17T22:58:19;10.79;62.64
47434;SHT31;33184;48.774;8.918;2023-03-17T23:03:39;10.86;62.02
47434;SHT31;33184;48.774;8.918;2023-03-17T23:09:00;10.90;59.64
47434;SHT31;33184;48.774;8.918;2023-03-17T23:14:21;11.08;58.50
47434;SHT31;33184;48.774;8.918;2023-03-17T23:19:41;11.24;57.36
47434;SHT31;33184;48.774;8.918;2023-03-17T23:25:02;11.31;55.88
47434;SHT31;33184;48.774;8.918;2023-03-17T23:30:23;11.40;55.01
47434;SHT31;33184;48.774;8.918;2023-03-17T23:35:44;11.51;53.93
47434;SHT31;33184;48.774;8.918;2023-03-17T23:41:05;11.55;53.90
47434;SHT31;33184;48.774;8.918;2023-03-17T23:46:26;11.48;54.45
47434;SHT31;33184;48.774;8.918;2023-03-17T23:51:48;11.38;54.50
47434;SHT31;33184;48.774;8.918;2023-03-17T23:57:08;11.37;54.18
